Time;durP1;ratioP1;P1;durP2;ratioP2;P2;SDS_P1;SDS_P2;PMS_P1;PMS_P2;Temp;Humidity;BMP_temperature;BMP_pressure;BME280_temperature;BME280_humidity;BME280_pressure;Samples;Min_cycle;Max_cycle;Signal;HPM_P1;HPM_P2
2021/11/21 00:01:48;;;;;;;4.80;3.00;;;;;;;7.37;89.19;96528.95;105338;1313;28976;-82
2021/11/21 00:04:19;;;;;;;6.90;4.40;;;;;;;7.37;89.25;96523.21;105324;1312;29210;-82
2021/11/21 00:06:50;;;;;;;9.60;4.70;;;;;;;7.36;89.20;96521.00;105324;1312;30554;-82
2021/11/21 00:09:22;;;;;;;6.00;3.90;;;;;;;7.36;89.27;96515.24;105316;1316;27458;-82
2021/11/21 00:11:53;;;;;;;5.40;4.10;;;;;;;7.36;89.05;96509.70;105290;1315;31240;-82
2021/11/21 00:14:24;;;;;;;5.80;4.00;;;;;;;7.35;89.02;96505.48;105322;1316;28210;-82
2021/11/21 00:16:57;;;;;;;6.70;4.30;;;;;;;7.34;88.94;96505.91;105338;1316;25231;-82
2021/11/21 00:19:28;;;;;;;6.10;4.20;;;;;;;7.35;89.06;96510.71;105342;1313;26785;-83
2021/11/21 00:21:59;;;;;;;7.00;4.20;;;;;;;7.37;88.83;96516.57;105339;1313;27912;-82
2021/11/21 00:24:30;;;;;;;6.00;3.90;;;;;;;7.37;88.78;96512.71;105352;1313;26703;-82
2021/11/21 00:27:01;;;;;;;4.90;3.80;;;;;;;7.38;88.72;96509.50;105326;1313;40003;-83
2021/11/21 00:29:32;;;;;;;5.90;3.70;;;;;;;7.38;88.42;96508.77;105330;1310;30847;-83
2021/11/21 00:32:03;;;;;;;5.00;3.30;;;;;;;7.40;88.46;96504.11;105339;1313;26516;-83
2021/11/21 00:34:35;;;;;;;6.70;3.40;;;;;;;7.40;88.30;96501.06;105322;1315;28926;-83
2021/11/21 00:37:06;;;;;;;6.50;4.40;;;;;;;7.41;88.23;96498.69;105296;1315;32552;-85
2021/11/21 00:39:37;;;;;;;4.80;3.10;;;;;;;7.41;88.27;96495.73;105251;1313;30240;-84
2021/11/21 00:42:09;;;;;;;4.80;3.10;;;;;;;7.41;88.04;96496.15;105301;1312;27538;-85
2021/11/21 00:44:40;;;;;;;6.10;3.90;;;;;;;7.42;88.12;96495.05;105297;1313;28202;-85
2021/11/21 00:47:12;;;;;;;5.50;3.10;;;;;;;7.42;88.02;96493.25;105433;1310;26032;-84
2021/11/21 00:49:43;;;;;;;4.80;3.10;;;;;;;7.42;87.99;96487.50;105446;1313;35045;-84
2021/11/21 00:52:15;;;;;;;5.90;3.00;;;;;;;7.42;87.90;96479.80;105394;1315;25575;-84
2021/11/21 00:54:50;;;;;;;4.90;3.40;;;;;;;7.42;87.90;96472.47;105374;1313;24808;-83
2021/11/21 00:57:23;;;;;;;4.90;3.10;;;;;;;7.43;87.87;96471.27;105365;1313;26819;-83
2021/11/21 00:59:54;;;;;;;4.50;3.20;;;;;;;7.42;87.87;96466.67;105326;1315;38282;-83
2021/11/21 01:02:25;;;;;;;5.90;3.10;;;;;;;7.40;87.91;96465.77;105268;1313;28108;-83
2021/11/21 01:04:56;;;;;;;7.20;3.60;;;;;;;7.39;87.77;96466.83;105296;1315;31897;-83
2021/11/21 01:07:27;;;;;;;6.00;3.20;;;;;;;7.39;87.73;96463.03;105322;1310;28668;-83
2021/11/21 01:09:58;;;;;;;6.40;3.50;;;;;;;7.40;87.64;96463.34;105293;1312;26706;-83
2021/11/21 01:12:29;;;;;;;5.50;3.40;;;;;;;7.40;87.66;96457.60;105268;1309;31841;-83
2021/11/21 01:15:00;;;;;;;8.00;3.70;;;;;;;7.40;87.61;96450.21;105348;1309;28016;-84
2021/11/21 01:17:31;;;;;;;4.70;3.00;;;;;;;7.40;87.51;96445.25;105356;1316;26472;-83
2021/11/21 01:20:02;;;;;;;4.90;3.30;;;;;;;7.41;87.42;96439.45;105367;1310;26900;-82
2021/11/21 01:22:35;;;;;;;5.10;3.50;;;;;;;7.39;87.38;96434.45;105345;1312;26029;-83
2021/11/21 01:25:09;;;;;;;4.80;3.10;;;;;;;7.38;87.30;96432.60;105401;1312;29607;-83
2021/11/21 01:27:41;;;;;;;4.80;2.70;;;;;;;7.39;87.10;96424.27;105350;1310;29091;-83
2021/11/21 01:30:16;;;;;;;4.30;3.00;;;;;;;7.40;86.96;96412.02;105311;1309;26392;-82
2021/11/21 01:32:49;;;;;;;3.80;2.90;;;;;;;7.40;86.79;96410.81;105286;1312;27757;-81
2021/11/21 01:35:20;;;;;;;3.00;2.50;;;;;;;7.40;86.72;96412.61;105340;1315;27438;-83
2021/11/21 01:37:52;;;;;;;4.10;2.50;;;;;;;7.40;86.38;96406.96;105349;1310;25928;-82
2021/11/21 01:40:24;;;;;;;3.60;2.80;;;;;;;7.40;86.34;96406.33;105340;1311;27207;-82
2021/11/21 01:42:57;;;;;;;3.90;2.70;;;;;;;7.40;86.49;96397.05;105358;1311;27208;-82
2021/11/21 01:45:29;;;;;;;3.40;2.50;;;;;;;7.40;86.26;96396.36;105369;1315;27099;-83
2021/11/21 01:48:01;;;;;;;4.10;2.70;;;;;;;7.41;85.96;96386.13;105392;1310;29692;-83
2021/11/21 01:50:35;;;;;;;3.90;2.30;;;;;;;7.41;85.95;96379.86;105297;1310;29822;-82
2021/11/21 01:53:07;;;;;;;5.40;2.70;;;;;;;7.39;85.87;96376.11;105333;1309;26849;-83
2021/11/21 01:55:41;;;;;;;4.30;2.90;;;;;;;7.35;85.78;96370.31;105333;1312;27814;-83
2021/11/21 01:58:12;;;;;;;3.20;2.20;;;;;;;7.28;85.71;96365.55;105415;1309;26554;-83
2021/11/21 02:00:46;;;;;;;2.40;2.00;;;;;;;7.22;85.73;96361.49;105384;1309;28800;-82
2021/11/21 02:03:18;;;;;;;3.70;2.30;;;;;;;7.15;85.63;96350.83;105413;1310;24477;-83
2021/11/21 02:05:49;;;;;;;3.90;2.20;;;;;;;7.10;85.55;96348.67;105319;1310;27321;-82
2021/11/21 02:08:21;;;;;;;3.40;1.90;;;;;;;7.10;85.56;96337.80;105352;1312;26417;-83
2021/11/21 02:10:58;;;;;;;2.70;1.80;;;;;;;7.08;85.28;96333.38;105353;1315;28881;-83
2021/11/21 02:13:29;;;;;;;2.70;1.90;;;;;;;7.10;85.02;96326.42;105236;1309;174970;-82
2021/11/21 02:16:00;;;;;;;3.10;2.10;;;;;;;7.04;84.92;96320.19;105354;1310;27547;-83
2021/11/21 02:18:31;;;;;;;2.80;1.60;;;;;;;6.96;84.95;96311.91;105389;1309;27908;-83
2021/11/21 02:21:02;;;;;;;2.80;1.80;;;;;;;6.93;85.04;96314.18;105367;1311;25411;-83
2021/11/21 02:23:34;;;;;;;3.10;2.40;;;;;;;6.91;85.20;96308.85;105366;1312;24836;-82
2021/11/21 02:26:06;;;;;;;3.20;1.80;;;;;;;6.87;85.15;96314.52;105352;1313;26988;-83
2021/11/21 02:28:38;;;;;;;4.50;1.90;;;;;;;6.84;85.07;96311.41;105388;1310;28513;-83
2021/11/21 02:31:11;;;;;;;2.40;1.30;;;;;;;6.84;85.14;96309.20;105324;1311;26431;-83
2021/11/21 02:33:43;;;;;;;3.90;2.00;;;;;;;6.87;84.99;96317.31;105413;1310;26136;-83
2021/11/21 02:36:14;;;;;;;2.20;1.50;;;;;;;6.84;84.87;96314.30;105376;1316;26482;-83
2021/11/21 02:38:46;;;;;;;2.60;1.60;;;;;;;6.77;84.70;96310.73;105453;1310;27113;-82
2021/11/21 02:41:18;;;;;;;2.80;1.70;;;;;;;6.72;84.84;96309.11;105434;1316;28866;-83
2021/11/21 02:43:49;;;;;;;2.70;1.70;;;;;;;6.67;84.78;96309.48;105303;1313;28211;-82
2021/11/21 02:46:21;;;;;;;2.30;1.60;;;;;;;6.64;84.78;96305.54;105285;1309;27912;-82
2021/11/21 02:48:52;;;;;;;3.60;2.00;;;;;;;6.58;84.91;96309.09;105312;1312;25807;-82
2021/11/21 02:51:23;;;;;;;3.30;1.70;;;;;;;6.55;84.91;96306.92;105306;1315;25438;-82
2021/11/21 02:53:54;;;;;;;3.60;2.00;;;;;;;6.55;85.10;96298.88;105351;1309;29310;-82
2021/11/21 02:56:27;;;;;;;2.80;1.60;;;;;;;6.51;84.88;96286.54;105369;1309;26302;-82
2021/11/21 02:58:58;;;;;;;2.70;1.60;;;;;;;6.47;84.80;96280.05;105383;1313;26786;-83
2021/11/21 03:01:29;;;;;;;2.30;1.80;;;;;;;6.39;84.63;96272.66;105349;1309;27965;-83
2021/11/21 03:04:01;;;;;;;2.90;1.60;;;;;;;6.45;84.80;96266.87;105332;1309;25964;-83
2021/11/21 03:06:35;;;;;;;3.10;1.70;;;;;;;6.47;84.68;96267.61;105387;1310;26311;-82
2021/11/21 03:09:06;;;;;;;3.10;1.80;;;;;;;6.44;84.53;96269.18;105354;1309;26482;-82
2021/11/21 03:11:38;;;;;;;2.20;1.50;;;;;;;6.40;84.51;96266.45;105355;1310;25650;-83
2021/11/21 03:14:09;;;;;;;1.40;0.90;;;;;;;6.35;84.67;96259.48;105323;1310;29016;-82
2021/11/21 03:16:40;;;;;;;2.60;1.50;;;;;;;6.38;84.57;96262.39;105353;1309;29722;-83
2021/11/21 03:19:11;;;;;;;3.40;2.10;;;;;;;6.34;84.47;96259.58;105332;1313;31754;-82
2021/11/21 03:21:44;;;;;;;2.20;1.70;;;;;;;6.27;84.45;96255.56;105365;1311;28215;-82
2021/11/21 03:24:15;;;;;;;2.70;1.80;;;;;;;6.21;84.37;96253.71;105426;1309;26454;-83
2021/11/21 03:26:46;;;;;;;2.80;1.70;;;;;;;6.19;84.79;96250.02;105420;1311;30529;-83
2021/11/21 03:29:17;;;;;;;3.30;2.20;;;;;;;6.19;84.90;96244.02;105326;1316;29422;-82
2021/11/21 03:31:48;;;;;;;2.90;2.10;;;;;;;6.16;84.95;96242.67;105320;1310;28305;-82
2021/11/21 03:34:19;;;;;;;2.80;1.90;;;;;;;6.12;85.06;96232.98;105322;1307;30630;-82
2021/11/21 03:36:50;;;;;;;2.20;1.50;;;;;;;6.16;85.38;96231.15;105346;1309;31948;-83
2021/11/21 03:39:21;;;;;;;2.20;1.80;;;;;;;6.16;85.47;96226.35;105311;1311;36082;-82
2021/11/21 03:41:52;;;;;;;4.10;2.60;;;;;;;6.15;85.28;96226.67;105373;1309;30376;-82
2021/11/21 03:44:24;;;;;;;2.70;2.20;;;;;;;6.10;85.40;96224.56;105331;1310;29157;-83
2021/11/21 03:46:55;;;;;;;5.40;2.80;;;;;;;6.04;85.44;96211.70;105343;1309;29680;-82
2021/11/21 03:49:26;;;;;;;3.60;2.60;;;;;;;5.97;85.61;96206.63;105352;1309;28486;-82
2021/11/21 03:51:57;;;;;;;4.80;2.60;;;;;;;5.92;85.80;96201.88;105342;1313;31523;-82
2021/11/21 03:54:28;;;;;;;5.70;3.40;;;;;;;5.89;86.10;96197.41;105359;1310;29168;-82
2021/11/21 03:56:59;;;;;;;5.30;2.00;;;;;;;5.88;86.29;96190.83;105316;1313;28432;-83
2021/11/21 03:59:30;;;;;;;3.50;2.50;;;;;;;5.85;86.32;96188.40;105320;1309;28128;-83
2021/11/21 04:02:01;;;;;;;5.40;3.60;;;;;;;5.82;86.29;96190.23;105322;1310;31830;-83
2021/11/21 04:04:33;;;;;;;4.30;3.10;;;;;;;5.82;86.70;96180.03;105316;1309;32095;-83
2021/11/21 04:07:05;;;;;;;5.20;3.20;;;;;;;5.85;86.93;96176.09;105320;1315;37776;-82
2021/11/21 04:09:38;;;;;;;5.20;3.40;;;;;;;5.85;86.99;96174.77;105227;1309;27995;-83
2021/11/21 04:12:11;;;;;;;4.60;3.40;;;;;;;5.83;87.20;96172.45;105305;1313;30042;-83
2021/11/21 04:14:43;;;;;;;4.00;2.50;;;;;;;5.82;87.12;96176.02;105264;1311;30146;-83
2021/11/21 04:17:13;;;;;;;5.10;3.70;;;;;;;5.81;87.08;96176.40;105390;1314;26284;-83
2021/11/21 04:19:44;;;;;;;4.20;3.20;;;;;;;5.83;87.42;96172.45;105340;1310;29803;-83
2021/11/21 04:22:15;;;;;;;5.50;3.70;;;;;;;5.86;87.34;96173.67;105414;1310;30309;-83
2021/11/21 04:24:46;;;;;;;4.40;3.00;;;;;;;5.87;87.38;96172.26;105415;1312;28059;-83
2021/11/21 04:27:19;;;;;;;3.90;2.70;;;;;;;5.94;87.59;96170.36;105431;1309;27735;-83
2021/11/21 04:29:50;;;;;;;4.50;3.00;;;;;;;5.99;87.46;96171.64;105290;1314;29679;-82
2021/11/21 04:32:21;;;;;;;3.30;2.70;;;;;;;5.98;87.31;96170.69;105323;1309;28092;-82
2021/11/21 04:34:52;;;;;;;5.00;2.90;;;;;;;6.00;87.49;96169.11;105331;1310;26596;-82
2021/11/21 04:37:23;;;;;;;3.40;2.50;;;;;;;6.04;87.51;96165.48;105331;1314;25016;-83
2021/11/21 04:39:54;;;;;;;6.90;2.80;;;;;;;6.05;87.58;96168.28;105227;1309;31002;-83
2021/11/21 04:42:25;;;;;;;6.10;3.70;;;;;;;6.02;87.49;96168.64;105312;1313;26098;-83
2021/11/21 04:44:56;;;;;;;5.60;3.10;;;;;;;6.00;87.60;96165.00;105311;1309;28889;-82
2021/11/21 04:47:27;;;;;;;5.10;3.00;;;;;;;6.03;87.69;96161.48;105360;1310;26991;-83
2021/11/21 04:49:58;;;;;;;4.70;2.90;;;;;;;6.03;87.51;96157.69;105321;1309;27084;-82
2021/11/21 04:52:29;;;;;;;4.90;3.20;;;;;;;6.01;87.55;96158.01;105353;1311;26818;-84
2021/11/21 04:55:00;;;;;;;4.30;3.00;;;;;;;5.93;87.43;96155.52;105340;1313;29045;-83
2021/11/21 04:57:32;;;;;;;4.90;3.20;;;;;;;5.85;87.40;96152.27;105278;1309;26668;-83
2021/11/21 05:00:03;;;;;;;3.90;3.00;;;;;;;5.78;87.60;96151.81;105351;1310;25240;-83
2021/11/21 05:02:39;;;;;;;3.80;2.70;;;;;;;5.76;87.54;96149.80;105355;1309;33300;-83
2021/11/21 05:05:11;;;;;;;3.20;2.10;;;;;;;5.73;87.33;96149.63;105341;1310;25082;-83
2021/11/21 05:07:42;;;;;;;3.20;2.10;;;;;;;5.74;87.64;96145.64;105246;1309;27344;-83
2021/11/21 05:10:13;;;;;;;5.30;2.10;;;;;;;5.76;87.62;96141.86;105266;1309;29286;-85
2021/11/21 05:12:44;;;;;;;5.00;3.10;;;;;;;5.76;87.83;96136.48;105381;1313;27151;-83
2021/11/21 05:15:19;;;;;;;4.40;2.50;;;;;;;5.76;87.70;96138.75;105380;1309;25703;-83
2021/11/21 05:17:51;;;;;;;5.20;2.50;;;;;;;5.73;87.64;96133.81;105337;1309;29547;-83
2021/11/21 05:20:23;;;;;;;3.60;2.60;;;;;;;5.72;87.63;96124.86;105343;1313;25798;-83
2021/11/21 05:22:54;;;;;;;3.90;2.50;;;;;;;5.72;87.80;96126.70;105314;1309;27054;-82
2021/11/21 05:25:25;;;;;;;4.40;3.20;;;;;;;5.69;87.55;96122.59;105381;1310;26992;-83
2021/11/21 05:27:56;;;;;;;4.10;2.80;;;;;;;5.67;87.69;96117.48;105328;1309;28923;-83
2021/11/21 05:30:27;;;;;;;4.60;2.80;;;;;;;5.66;87.78;96117.44;105354;1309;30179;-85
2021/11/21 05:32:58;;;;;;;4.20;2.70;;;;;;;5.68;87.76;96112.08;105294;1311;30271;-83
2021/11/21 05:35:30;;;;;;;5.50;3.20;;;;;;;5.70;87.68;96112.13;105305;1314;29605;-85
2021/11/21 05:38:01;;;;;;;5.50;3.70;;;;;;;5.71;87.94;96113.45;105344;1313;35021;-86
2021/11/21 05:40:32;;;;;;;4.40;2.10;;;;;;;5.72;87.72;96112.02;105366;1309;28928;-86
2021/11/21 05:43:03;;;;;;;4.90;3.30;;;;;;;5.72;87.83;96107.88;105341;1311;30185;-85
2021/11/21 05:45:34;;;;;;;3.60;2.70;;;;;;;5.75;87.75;96107.35;105400;1311;30984;-84
2021/11/21 05:48:06;;;;;;;4.30;2.90;;;;;;;5.76;87.83;96099.46;105411;1311;30604;-85
2021/11/21 05:50:37;;;;;;;3.90;2.60;;;;;;;5.79;87.99;96101.64;105310;1309;28732;-84
2021/11/21 05:53:09;;;;;;;5.60;3.60;;;;;;;5.81;87.78;96104.39;105232;1309;31575;-84
2021/11/21 05:55:40;;;;;;;5.20;3.60;;;;;;;5.80;87.67;96100.22;105333;1314;28409;-84
2021/11/21 05:58:11;;;;;;;3.60;2.40;;;;;;;5.80;87.64;96101.64;105340;1309;33694;-84
2021/11/21 06:00:42;;;;;;;3.10;2.30;;;;;;;5.81;87.51;96097.34;105328;1309;26550;-84
2021/11/21 06:03:13;;;;;;;6.70;3.40;;;;;;;5.82;87.52;96095.86;105326;1309;26736;-84
2021/11/21 06:05:44;;;;;;;3.60;2.50;;;;;;;5.80;87.47;96096.48;105401;1309;25695;-85
2021/11/21 06:08:15;;;;;;;6.60;3.70;;;;;;;5.82;87.50;96094.28;105427;1309;26156;-84
2021/11/21 06:10:46;;;;;;;4.90;3.10;;;;;;;5.80;87.46;96097.33;105408;1309;32042;-85
2021/11/21 06:13:17;;;;;;;5.40;3.70;;;;;;;5.75;87.32;96094.52;105394;1309;26311;-84
2021/11/21 06:15:49;;;;;;;6.30;3.60;;;;;;;5.74;87.46;96096.93;105327;1309;26806;-84
2021/11/21 06:18:21;;;;;;;3.60;2.60;;;;;;;5.72;87.79;96093.98;105370;1313;32579;-84
2021/11/21 06:20:52;;;;;;;6.30;4.00;;;;;;;5.73;87.95;96093.84;105339;1310;28100;-84
2021/11/21 06:23:22;;;;;;;4.00;2.90;;;;;;;5.77;87.95;96093.41;105409;1312;32065;-84
2021/11/21 06:25:54;;;;;;;6.70;3.90;;;;;;;5.81;87.91;96087.92;105342;1314;31186;-85
2021/11/21 06:28:25;;;;;;;4.50;2.90;;;;;;;5.85;87.82;96083.70;105315;1310;27673;-85
2021/11/21 06:30:57;;;;;;;7.60;3.40;;;;;;;5.88;87.79;96083.28;105320;1310;27792;-84
2021/11/21 06:33:28;;;;;;;4.80;2.80;;;;;;;5.92;87.67;96072.02;105352;1310;32189;-85
2021/11/21 06:35:59;;;;;;;3.50;2.50;;;;;;;6.01;87.43;96077.45;105408;1314;27795;-85
2021/11/21 06:38:30;;;;;;;4.60;3.10;;;;;;;6.05;87.29;96086.40;105398;1310;26438;-85
2021/11/21 06:41:01;;;;;;;7.00;3.20;;;;;;;6.07;87.09;96088.61;105352;1316;27048;-85
2021/11/21 06:43:32;;;;;;;5.40;3.10;;;;;;;6.11;87.17;96095.30;105304;1310;31068;-85
2021/11/21 06:46:03;;;;;;;5.40;3.20;;;;;;;6.14;86.87;96093.66;105405;1314;31336;-85
2021/11/21 06:48:36;;;;;;;7.00;4.50;;;;;;;6.18;87.00;96098.91;105348;1313;25381;-83
2021/11/21 06:51:07;;;;;;;6.20;3.70;;;;;;;6.16;86.63;96098.45;105315;1309;35204;-85
2021/11/21 06:53:38;;;;;;;6.50;3.90;;;;;;;6.19;86.72;96098.56;105363;1310;30022;-85
2021/11/21 06:56:09;;;;;;;7.50;3.90;;;;;;;6.23;86.39;96088.00;105306;1309;27602;-84
2021/11/21 06:58:40;;;;;;;6.00;3.50;;;;;;;6.27;86.27;96087.67;105297;1315;27341;-85
2021/11/21 07:01:11;;;;;;;6.20;3.60;;;;;;;6.29;86.34;96075.09;105301;1309;28088;-84
2021/11/21 07:03:43;;;;;;;5.90;3.50;;;;;;;6.27;86.09;96069.71;105303;1309;27893;-85
2021/11/21 07:06:30;;;;;;;6.90;4.10;;;;;;;6.30;86.12;96070.72;105307;1315;26493;-83
2021/11/21 07:09:04;;;;;;;6.10;3.80;;;;;;;6.36;86.10;96067.04;105447;1309;34354;-83
2021/11/21 07:11:36;;;;;;;6.60;3.80;;;;;;;6.51;86.15;96061.59;105375;1309;25346;-83
2021/11/21 07:14:08;;;;;;;5.90;3.40;;;;;;;6.73;85.71;96062.56;105258;1314;28531;-82
2021/11/21 07:16:39;;;;;;;6.20;3.90;;;;;;;6.95;85.26;96058.88;105381;1309;26987;-83
2021/11/21 07:19:11;;;;;;;6.00;3.70;;;;;;;7.11;84.79;96059.51;105285;1310;26669;-82
2021/11/21 07:21:42;;;;;;;5.80;3.70;;;;;;;7.39;84.80;96057.02;105334;1313;30093;-83
2021/11/21 07:24:14;;;;;;;5.30;3.20;;;;;;;7.57;83.79;96059.67;105380;1310;25779;-82
2021/11/21 07:26:46;;;;;;;5.50;3.70;;;;;;;7.64;83.03;96059.97;105313;1309;26222;-83
2021/11/21 07:29:17;;;;;;;5.10;3.30;;;;;;;7.72;82.57;96056.36;105331;1309;27753;-83
2021/11/21 07:31:48;;;;;;;5.30;3.80;;;;;;;7.82;81.85;96059.59;105344;1309;29858;-84
2021/11/21 07:34:20;;;;;;;7.00;4.40;;;;;;;8.04;81.72;96060.50;105304;1310;26891;-84
2021/11/21 07:36:51;;;;;;;6.10;3.80;;;;;;;8.34;81.46;96060.86;105370;1315;30059;-83
2021/11/21 07:39:22;;;;;;;3.30;2.80;;;;;;;8.48;80.94;96054.58;105346;1310;29858;-85
2021/11/21 07:41:53;;;;;;;5.50;3.70;;;;;;;8.34;80.10;96049.52;105310;1310;26730;-84
2021/11/21 07:44:24;;;;;;;3.20;2.30;;;;;;;8.05;79.76;96052.88;105266;1309;26769;-84
2021/11/21 07:46:55;;;;;;;5.30;3.60;;;;;;;7.80;79.43;96049.84;105379;1310;28658;-85
2021/11/21 07:49:27;;;;;;;5.40;2.70;;;;;;;7.59;79.77;96047.95;105322;1309;27197;-83
2021/11/21 07:51:58;;;;;;;4.90;3.10;;;;;;;7.42;79.71;96046.03;105369;1311;36140;-83
2021/11/21 07:54:29;;;;;;;4.00;3.00;;;;;;;7.31;80.21;96050.25;105354;1316;27824;-84
2021/11/21 07:57:01;;;;;;;4.00;2.60;;;;;;;7.27;80.45;96046.63;105414;1309;28168;-86
2021/11/21 07:59:32;;;;;;;4.30;3.10;;;;;;;7.26;80.60;96045.64;105481;1312;27019;-85
2021/11/21 08:02:03;;;;;;;6.70;3.70;;;;;;;7.27;80.85;96041.47;105442;1311;28904;-84
2021/11/21 08:04:35;;;;;;;6.90;4.20;;;;;;;7.30;81.02;96037.60;105341;1315;28661;-82
2021/11/21 08:07:08;;;;;;;6.60;3.90;;;;;;;7.32;80.91;96039.39;105319;1309;29940;-84
2021/11/21 08:09:39;;;;;;;5.10;3.30;;;;;;;7.30;80.93;96042.55;105325;1311;26608;-84
2021/11/21 08:12:12;;;;;;;6.80;3.90;;;;;;;7.30;81.08;96039.75;105337;1311;33619;-85
2021/11/21 08:14:43;;;;;;;6.40;4.00;;;;;;;7.30;81.29;96037.39;105302;1309;32353;-84
2021/11/21 08:17:14;;;;;;;5.10;3.10;;;;;;;7.26;80.97;96038.67;105209;1309;30331;-85
2021/11/21 08:19:45;;;;;;;4.90;2.90;;;;;;;7.22;80.84;96038.07;105309;1309;29274;-84
2021/11/21 08:22:16;;;;;;;7.10;4.30;;;;;;;7.20;80.87;96039.35;105360;1309;44341;-84
2021/11/21 08:24:48;;;;;;;7.30;4.60;;;;;;;7.22;81.17;96034.75;105370;1310;27204;-85
2021/11/21 08:27:19;;;;;;;6.10;3.90;;;;;;;7.26;81.05;96037.15;105357;1309;27934;-84
2021/11/21 08:29:50;;;;;;;6.20;3.90;;;;;;;7.31;81.10;96044.18;105328;1309;30798;-84
2021/11/21 08:32:22;;;;;;;5.90;3.50;;;;;;;7.36;81.28;96043.02;105328;1315;29650;-84
2021/11/21 08:34:53;;;;;;;7.00;4.20;;;;;;;7.36;81.01;96044.91;105333;1309;27609;-84
2021/11/21 08:37:24;;;;;;;6.00;3.60;;;;;;;7.32;81.07;96039.70;105348;1315;27197;-84
2021/11/21 08:39:56;;;;;;;6.60;3.60;;;;;;;7.35;80.99;96038.96;105369;1310;28038;-84
2021/11/21 08:42:28;;;;;;;7.30;3.40;;;;;;;7.33;80.83;96036.23;105308;1309;32218;-84
2021/11/21 08:44:59;;;;;;;6.10;4.40;;;;;;;7.32;80.90;96033.42;105366;1312;33877;-84
2021/11/21 08:47:30;;;;;;;4.50;3.30;;;;;;;7.32;80.95;96036.77;105392;1310;29622;-84
2021/11/21 08:50:01;;;;;;;5.80;3.60;;;;;;;7.34;80.60;96030.32;105323;1309;25592;-84
2021/11/21 08:52:32;;;;;;;7.00;3.80;;;;;;;7.36;80.44;96030.05;105401;1309;24897;-84
2021/11/21 08:55:05;;;;;;;5.50;3.70;;;;;;;7.36;80.37;96029.30;105339;1314;27327;-84
2021/11/21 08:57:36;;;;;;;3.70;2.70;;;;;;;7.39;80.11;96018.99;105313;1310;26269;-84
2021/11/21 09:00:10;;;;;;;6.60;3.90;;;;;;;7.42;79.88;96016.87;105351;1309;25362;-83
2021/11/21 09:02:41;;;;;;;7.40;4.80;;;;;;;7.46;79.40;96008.67;105318;1309;26737;-84
2021/11/21 09:05:14;;;;;;;6.80;4.30;;;;;;;7.50;79.30;96003.48;105357;1309;26655;-83
2021/11/21 09:07:46;;;;;;;6.20;3.70;;;;;;;7.54;78.80;96001.49;105317;1310;27622;-84
2021/11/21 09:10:19;;;;;;;5.50;4.20;;;;;;;7.56;78.75;96003.65;105326;1315;28531;-84
2021/11/21 09:12:52;;;;;;;7.10;3.90;;;;;;;7.59;78.53;96001.27;105359;1309;30543;-84
2021/11/21 09:15:24;;;;;;;7.00;4.70;;;;;;;7.65;78.56;95999.70;105213;1309;27978;-84
2021/11/21 09:17:56;;;;;;;9.40;5.50;;;;;;;7.80;78.64;95990.30;105305;1309;33013;-84
2021/11/21 09:20:27;;;;;;;8.50;5.40;;;;;;;8.02;78.76;95989.66;105349;1310;27332;-84
2021/11/21 09:22:59;;;;;;;10.60;5.20;;;;;;;8.24;78.67;95981.44;105359;1316;25792;-84
2021/11/21 09:25:34;;;;;;;9.10;5.40;;;;;;;8.27;78.11;95981.04;105362;1313;27442;-84
2021/11/21 09:28:06;;;;;;;8.50;4.40;;;;;;;8.28;77.69;95980.14;105402;1309;26789;-83
2021/11/21 09:30:37;;;;;;;8.20;5.00;;;;;;;8.24;77.12;95970.15;105373;1311;26397;-84
2021/11/21 09:33:09;;;;;;;8.20;4.80;;;;;;;8.23;76.79;95967.61;105321;1316;30913;-84
2021/11/21 09:35:40;;;;;;;7.20;4.60;;;;;;;8.25;76.91;95960.20;105340;1314;26932;-84
2021/11/21 09:38:11;;;;;;;6.60;4.90;;;;;;;8.28;76.99;95965.98;105316;1309;29349;-83
2021/11/21 09:40:43;;;;;;;6.70;4.90;;;;;;;8.28;76.54;95958.95;105314;1311;27025;-84
2021/11/21 09:43:14;;;;;;;5.20;3.60;;;;;;;8.26;76.20;95955.44;105311;1309;28141;-84
2021/11/21 09:45:45;;;;;;;6.60;3.80;;;;;;;8.29;76.17;95944.95;105347;1310;26077;-84
2021/11/21 09:48:16;;;;;;;6.70;4.40;;;;;;;8.32;76.02;95950.95;105282;1311;29113;-84
2021/11/21 09:50:48;;;;;;;9.70;5.10;;;;;;;8.33;75.89;95949.79;105313;1313;27049;-84
2021/11/21 09:53:19;;;;;;;8.20;5.20;;;;;;;8.36;75.96;95939.91;105367;1311;27180;-84
2021/11/21 09:55:51;;;;;;;7.30;4.30;;;;;;;8.37;75.40;95937.10;105333;1309;27000;-84
2021/11/21 09:58:22;;;;;;;5.40;3.70;;;;;;;8.48;75.22;95938.39;105383;1313;27988;-84
2021/11/21 10:00:54;;;;;;;6.50;4.70;;;;;;;8.72;74.43;95926.92;105355;1311;29275;-84
2021/11/21 10:03:26;;;;;;;7.80;4.70;;;;;;;9.01;74.85;95935.77;105353;1315;25057;-84
2021/11/21 10:06:06;;;;;;;9.00;4.40;;;;;;;9.22;73.78;95929.77;105406;1309;29335;-84
2021/11/21 10:08:49;;;;;;;6.70;4.50;;;;;;;9.38;73.44;95928.86;105315;1309;26371;-84
2021/11/21 10:11:21;;;;;;;6.60;4.60;;;;;;;9.66;73.70;95922.25;105349;1309;26455;-84
2021/11/21 10:13:55;;;;;;;7.20;4.40;;;;;;;9.84;73.02;95926.04;104782;1308;804004;-84
2021/11/21 10:16:32;;;;;;;5.70;3.30;;;;;;;9.99;72.59;95929.03;105453;1309;27508;-86
2021/11/21 10:19:05;;;;;;;7.20;4.30;;;;;;;10.08;71.24;95926.12;105413;1312;26558;-84
2021/11/21 10:21:39;;;;;;;5.70;3.80;;;;;;;10.09;70.91;95919.80;105352;1311;26126;-83
2021/11/21 10:24:24;;;;;;;5.50;3.60;;;;;;;10.19;71.05;95914.34;105373;1313;28009;-87
2021/11/21 10:27:07;;;;;;;5.70;3.90;;;;;;;10.33;70.36;95908.27;105396;1309;25088;-85
2021/11/21 10:29:42;;;;;;;6.30;3.80;;;;;;;10.40;69.91;95911.64;105343;1309;27231;-85
2021/11/21 10:32:20;;;;;;;5.70;3.80;;;;;;;10.49;69.50;95901.27;105361;1309;26485;-85
2021/11/21 10:34:55;;;;;;;5.40;3.70;;;;;;;10.54;69.25;95897.55;105303;1309;28270;-85
2021/11/21 10:37:33;;;;;;;5.50;3.60;;;;;;;10.58;68.44;95898.11;105394;1310;28778;-85
2021/11/21 10:40:09;;;;;;;6.70;4.00;;;;;;;10.62;68.59;95897.43;105343;1309;97548;-85
2021/11/21 10:42:42;;;;;;;5.20;3.60;;;;;;;10.72;68.37;95889.42;105298;1310;27395;-86
2021/11/21 10:45:15;;;;;;;5.70;3.80;;;;;;;10.76;67.85;95890.86;105322;1313;32374;-84
2021/11/21 10:47:49;;;;;;;6.90;3.90;;;;;;;10.75;67.89;95886.89;105419;1310;27485;-85
2021/11/21 10:50:32;;;;;;;5.00;3.50;;;;;;;10.82;67.60;95893.27;105308;1309;31116;-85
2021/11/21 10:53:08;;;;;;;4.30;3.50;;;;;;;10.92;67.52;95889.14;105314;1309;54779;-85
2021/11/21 10:55:40;;;;;;;6.90;4.00;;;;;;;10.98;67.40;95885.20;105306;1310;30425;-85
2021/11/21 10:58:16;;;;;;;5.50;3.70;;;;;;;11.03;67.25;95884.27;105294;1310;33590;-85
2021/11/21 11:01:01;;;;;;;6.00;4.20;;;;;;;11.09;66.78;95878.60;105432;1309;28890;-85
2021/11/21 11:03:33;;;;;;;5.30;3.60;;;;;;;11.16;67.02;95878.77;105310;1310;30656;-85
2021/11/21 11:06:28;;;;;;;4.50;3.10;;;;;;;11.26;66.96;95872.54;105371;1310;27895;-85
2021/11/21 11:09:22;;;;;;;6.00;3.70;;;;;;;11.41;66.85;95869.82;105315;1309;38413;-84
2021/11/21 11:11:54;;;;;;;7.10;3.60;;;;;;;11.55;66.74;95863.58;105268;1314;48901;-83
2021/11/21 11:14:24;;;;;;;6.60;4.00;;;;;;;11.65;66.68;95857.98;105313;1310;31988;-84
2021/11/21 11:16:57;;;;;;;6.40;3.40;;;;;;;11.74;66.70;95859.42;105384;1309;25243;-85
2021/11/21 11:19:29;;;;;;;4.70;3.30;;;;;;;11.74;66.51;95852.98;105307;1309;32770;-85
2021/11/21 11:22:00;;;;;;;5.90;3.50;;;;;;;11.87;66.75;95848.27;105322;1309;23981;-85
2021/11/21 11:24:34;;;;;;;4.60;3.40;;;;;;;11.99;65.98;95842.02;105374;1310;30475;-86
2021/11/21 11:27:25;;;;;;;5.10;3.70;;;;;;;12.04;66.06;95846.98;105512;1309;29049;-86
2021/11/21 11:29:58;;;;;;;6.60;3.90;;;;;;;12.15;66.13;95842.45;105380;1314;29038;-84
2021/11/21 11:32:35;;;;;;;4.80;3.70;;;;;;;12.25;65.85;95838.59;105384;1309;28919;-85
2021/11/21 11:35:27;;;;;;;6.60;3.90;;;;;;;12.23;65.54;95836.87;105353;1309;28558;-86
2021/11/21 11:38:08;;;;;;;6.40;3.70;;;;;;;12.26;65.98;95835.27;105323;1309;27454;-84
2021/11/21 11:40:52;;;;;;;6.50;3.50;;;;;;;12.36;66.05;95833.00;105299;1309;30092;-85
2021/11/21 11:43:39;;;;;;;6.10;3.70;;;;;;;12.36;65.25;95837.73;105325;1309;29362;-84
2021/11/21 11:46:27;;;;;;;7.10;4.30;;;;;;;12.38;65.38;95838.84;105292;1310;37381;-86
2021/11/21 11:49:01;;;;;;;6.30;3.80;;;;;;;12.44;65.27;95836.02;105269;1310;34979;-85
2021/11/21 11:51:52;;;;;;;6.40;4.30;;;;;;;12.47;65.18;95837.33;105193;1309;32151;-86
2021/11/21 11:54:35;;;;;;;7.00;4.30;;;;;;;12.58;65.23;95839.30;105271;1313;32161;-84
2021/11/21 11:57:37;;;;;;;7.40;4.80;;;;;;;12.65;64.57;95833.77;105329;1309;34961;-84